createdAt,value
2023-05-24T00:01:02.872Z,87.81
2023-05-24T00:03:34.965Z,87.81
2023-05-24T00:06:04.146Z,86.60
2023-05-24T00:08:32.885Z,85.39
2023-05-24T00:11:01.650Z,87.88
2023-05-24T00:13:30.145Z,87.85
2023-05-24T00:15:58.635Z,86.23
2023-05-24T00:18:27.126Z,87.05
2023-05-24T00:20:57.331Z,87.24
2023-05-24T00:23:26.103Z,86.08
2023-05-24T00:25:54.781Z,86.61
2023-05-24T00:28:23.245Z,86.67
2023-05-24T00:30:52.320Z,86.72
2023-05-24T00:33:23.380Z,86.38
2023-05-24T00:35:56.317Z,85.99
2023-05-24T00:38:27.293Z,86.63
2023-05-24T00:40:57.459Z,87.02
2023-05-24T00:43:26.015Z,85.79
2023-05-24T00:46:16.439Z,86.82
2023-05-24T00:48:46.127Z,85.69
2023-05-24T00:51:15.797Z,87.23
2023-05-24T00:53:49.867Z,87.40
2023-05-24T00:56:19.330Z,87.23
2023-05-24T00:58:50.490Z,86.88
2023-05-24T01:01:19.302Z,86.97
2023-05-24T01:03:48.243Z,86.32
2023-05-24T01:06:18.046Z,86.03
2023-05-24T01:09:21.349Z,87.63
2023-05-24T01:12:12.985Z,85.96
2023-05-24T01:14:56.999Z,86.98
2023-05-24T01:17:32.873Z,85.66
2023-05-24T01:20:08.309Z,87.55
2023-05-24T01:23:06.000Z,85.84
2023-05-24T01:25:53.947Z,85.31
2023-05-24T01:28:25.534Z,86.23
2023-05-24T01:30:54.432Z,86.26
2023-05-24T01:33:23.029Z,86.84
2023-05-24T01:35:51.667Z,86.37
2023-05-24T01:38:20.442Z,86.08
2023-05-24T01:40:55.562Z,86.71
2023-05-24T01:43:40.943Z,87.47
2023-05-24T01:46:26.027Z,86.87
2023-05-24T01:49:11.277Z,87.42
2023-05-24T01:51:47.032Z,86.77
2023-05-24T01:54:15.920Z,86.26
2023-05-24T01:56:47.622Z,86.73
2023-05-24T01:59:17.897Z,87.40
2023-05-24T02:01:46.854Z,86.00
2023-05-24T02:04:15.429Z,87.06
2023-05-24T02:06:43.944Z,86.36
2023-05-24T02:09:12.511Z,86.34
2023-05-24T02:11:41.264Z,86.62
2023-05-24T02:14:10.170Z,86.36
2023-05-24T02:16:43.674Z,87.50
2023-05-24T02:19:12.273Z,87.34
2023-05-24T02:21:41.250Z,87.95
2023-05-24T02:24:11.461Z,88.40
2023-05-24T02:26:40.145Z,86.63
2023-05-24T02:29:08.872Z,86.76
2023-05-24T02:31:37.451Z,88.05
2023-05-24T02:34:07.972Z,88.06
2023-05-24T02:36:37.378Z,87.62
2023-05-24T02:39:06.547Z,86.51
2023-05-24T02:41:35.055Z,86.90
2023-05-24T02:44:03.761Z,86.50
2023-05-24T02:46:32.315Z,86.83
2023-05-24T02:49:01.143Z,86.40
2023-05-24T02:51:32.724Z,86.57
2023-05-24T02:54:01.469Z,88.07
2023-05-24T02:56:30.768Z,87.43
2023-05-24T02:58:59.336Z,87.59
2023-05-24T03:01:28.147Z,87.78
2023-05-24T03:03:56.725Z,87.07
2023-05-24T03:06:25.487Z,87.07
2023-05-24T03:08:55.365Z,87.91
2023-05-24T03:11:24.091Z,86.71
2023-05-24T03:13:52.629Z,87.45
2023-05-24T03:16:21.507Z,87.60
2023-05-24T03:18:51.355Z,87.23
2023-05-24T03:21:21.101Z,86.61
2023-05-24T03:23:50.261Z,88.06
2023-05-24T03:26:20.897Z,87.05
2023-05-24T03:28:50.740Z,87.16
2023-05-24T03:31:21.246Z,88.15
2023-05-24T03:33:49.826Z,88.09
2023-05-24T03:36:18.419Z,87.94
2023-05-24T03:38:47.131Z,87.70
2023-05-24T03:41:15.718Z,86.66
2023-05-24T03:43:45.657Z,87.23
2023-05-24T03:46:14.202Z,88.34
2023-05-24T03:48:42.780Z,87.09
2023-05-24T03:51:11.360Z,86.73
2023-05-24T03:53:40.183Z,88.32
2023-05-24T03:56:08.715Z,88.87
2023-05-24T03:58:37.554Z,88.54
2023-05-24T04:01:08.232Z,89.43
2023-05-24T04:03:36.953Z,89.50
2023-05-24T04:06:05.692Z,89.69
2023-05-24T04:08:34.237Z,88.27
2023-05-24T04:11:02.717Z,89.83
2023-05-24T04:13:31.609Z,89.60
2023-05-24T04:16:00.163Z,90.04
2023-05-24T04:18:30.190Z,89.06
2023-05-24T04:20:58.781Z,88.12
2023-05-24T04:23:27.326Z,88.96
2023-05-24T04:25:55.957Z,89.57
2023-05-24T04:28:24.824Z,88.87
2023-05-24T04:30:53.914Z,89.31
2023-05-24T04:33:22.617Z,88.57
2023-05-24T04:35:53.350Z,90.12
2023-05-24T04:38:22.582Z,88.44
2023-05-24T04:40:51.377Z,87.54
2023-05-24T04:43:19.961Z,88.02
2023-05-24T04:45:48.736Z,88.18
2023-05-24T04:48:17.763Z,88.64
2023-05-24T04:50:46.527Z,88.63
2023-05-24T04:53:16.474Z,88.90
2023-05-24T04:55:45.279Z,88.78
2023-05-24T04:58:13.967Z,87.76
2023-05-24T05:00:43.258Z,87.11
2023-05-24T05:03:12.326Z,87.83
2023-05-24T05:05:41.269Z,86.35
2023-05-24T05:08:09.879Z,86.14
2023-05-24T05:10:39.998Z,86.62
2023-05-24T05:13:08.760Z,86.21
2023-05-24T05:15:37.265Z,86.86
2023-05-24T05:18:06.077Z,87.58
2023-05-24T05:20:34.729Z,87.50
2023-05-24T05:25:53.908Z,85.35
2023-05-24T05:28:22.660Z,85.09
2023-05-24T05:30:51.343Z,85.48
2023-05-24T05:33:19.858Z,84.70
2023-05-24T05:35:48.384Z,84.99
2023-05-24T05:38:17.440Z,85.38
2023-05-24T05:40:46.104Z,85.23
2023-05-24T05:43:16.291Z,84.34
2023-05-24T05:45:44.835Z,84.79
2023-05-24T05:48:13.362Z,84.03
2023-05-24T05:50:42.193Z,84.83
2023-05-24T05:53:10.957Z,84.14
2023-05-24T05:55:39.502Z,85.02
2023-05-24T05:58:08.012Z,84.41
2023-05-24T06:00:38.012Z,84.62
2023-05-24T06:03:06.595Z,84.71
2023-05-24T06:05:35.773Z,84.50
2023-05-24T06:08:04.310Z,84.30
2023-05-24T06:10:32.871Z,84.54
2023-05-24T06:13:04.589Z,84.64
2023-05-24T06:15:34.573Z,84.34
2023-05-24T06:18:05.317Z,84.70
2023-05-24T06:20:33.939Z,83.58
2023-05-24T06:23:02.977Z,83.15
2023-05-24T06:25:33.039Z,83.03
2023-05-24T06:28:01.593Z,82.11
2023-05-24T06:30:31.350Z,83.26
2023-05-24T06:33:01.001Z,83.21
2023-05-24T06:35:31.000Z,82.30
2023-05-24T06:38:00.591Z,82.20
2023-05-24T06:40:29.154Z,82.58
2023-05-24T06:42:58.802Z,82.21
2023-05-24T06:45:29.187Z,81.11
2023-05-24T06:47:58.295Z,82.45
2023-05-24T06:50:27.991Z,81.59
2023-05-24T06:52:57.958Z,80.90
2023-05-24T06:55:26.649Z,80.81
2023-05-24T06:57:56.981Z,82.60
2023-05-24T07:00:25.717Z,80.42
2023-05-24T07:02:54.535Z,81.17
2023-05-24T07:05:24.812Z,81.36
2023-05-24T07:07:53.338Z,80.32
2023-05-24T07:10:23.321Z,81.81
2023-05-24T07:12:52.280Z,80.54
2023-05-24T07:15:21.162Z,79.48
2023-05-24T07:17:49.707Z,79.53
2023-05-24T07:20:18.456Z,77.31
2023-05-24T07:22:47.517Z,78.71
2023-05-24T07:25:16.103Z,78.68
2023-05-24T07:27:46.004Z,77.74
2023-05-24T07:30:27.681Z,77.64
2023-05-24T07:32:59.840Z,77.93
2023-05-24T07:35:29.508Z,76.51
2023-05-24T07:37:58.111Z,78.40
2023-05-24T07:40:27.882Z,77.36
2023-05-24T07:42:57.881Z,78.49
2023-05-24T07:45:27.394Z,77.58
2023-05-24T07:47:57.217Z,78.56
2023-05-24T07:50:26.822Z,78.31
2023-05-24T07:52:55.945Z,77.64
2023-05-24T07:55:24.549Z,78.28
2023-05-24T07:57:53.069Z,77.85
2023-05-24T08:00:23.471Z,79.91
2023-05-24T08:02:53.634Z,77.92
2023-05-24T08:05:23.217Z,79.37
2023-05-24T08:07:52.303Z,78.06
2023-05-24T08:10:22.100Z,78.50
2023-05-24T08:12:51.714Z,77.99
2023-05-24T08:15:20.288Z,77.91
2023-05-24T08:17:50.322Z,78.98
2023-05-24T08:20:19.210Z,78.25
2023-05-24T08:22:48.561Z,77.99
2023-05-24T08:25:17.248Z,76.86
2023-05-24T08:27:45.945Z,77.26
2023-05-24T08:30:15.545Z,76.37
2023-05-24T08:32:44.138Z,78.55
2023-05-24T08:37:46.179Z,77.98
2023-05-24T08:40:14.910Z,77.20
2023-05-24T08:42:44.021Z,78.04
2023-05-24T08:45:16.137Z,77.04
2023-05-24T08:47:45.203Z,77.81
2023-05-24T08:50:15.334Z,77.89
2023-05-24T08:52:45.916Z,77.55
2023-05-24T08:55:14.672Z,77.03
2023-05-24T08:57:43.766Z,77.91
2023-05-24T09:00:14.103Z,78.95
2023-05-24T09:02:45.082Z,77.53
2023-05-24T09:05:18.286Z,78.83
2023-05-24T09:07:47.930Z,77.36
2023-05-24T09:10:16.926Z,77.23
2023-05-24T09:12:49.894Z,76.80
2023-05-24T09:15:18.597Z,77.31
2023-05-24T09:17:47.584Z,76.91
2023-05-24T09:20:17.548Z,75.59
2023-05-24T09:22:51.861Z,77.35
2023-05-24T09:25:22.598Z,76.98
2023-05-24T09:27:53.016Z,77.94
2023-05-24T09:30:22.307Z,77.00
2023-05-24T09:32:59.107Z,77.91
2023-05-24T09:35:29.880Z,76.48
2023-05-24T09:38:02.971Z,76.63
2023-05-24T09:40:32.348Z,77.71
2023-05-24T09:43:10.512Z,78.22
2023-05-24T09:45:47.428Z,76.86
2023-05-24T09:48:17.657Z,78.13
2023-05-24T09:51:02.143Z,78.86
2023-05-24T09:53:30.874Z,78.16
2023-05-24T09:55:59.533Z,77.90
2023-05-24T09:58:33.208Z,78.64
2023-05-24T10:01:11.035Z,76.89
2023-05-24T10:03:40.132Z,77.99
2023-05-24T10:06:13.955Z,77.90
2023-05-24T10:08:42.556Z,78.51
2023-05-24T10:11:11.111Z,80.49
2023-05-24T10:13:41.110Z,78.79
2023-05-24T10:16:10.065Z,79.09
2023-05-24T10:18:39.896Z,77.79
2023-05-24T10:21:11.052Z,75.10
2023-05-24T10:23:40.751Z,75.69
2023-05-24T10:26:11.920Z,75.88
2023-05-24T10:28:44.808Z,75.20
2023-05-24T10:31:17.141Z,74.66
2023-05-24T10:33:48.614Z,74.91
2023-05-24T10:36:19.803Z,75.64
2023-05-24T10:38:48.648Z,74.98
2023-05-24T10:41:19.560Z,75.96
2023-05-24T10:44:04.912Z,75.08
2023-05-24T10:46:36.960Z,72.88
2023-05-24T10:49:07.663Z,73.11
2023-05-24T10:51:39.006Z,75.33
2023-05-24T10:54:16.982Z,74.58
2023-05-24T10:56:50.239Z,73.89
2023-05-24T10:59:35.178Z,75.08
2023-05-24T11:02:04.279Z,75.43
2023-05-24T11:04:35.517Z,74.23
2023-05-24T11:07:09.664Z,74.11
2023-05-24T11:09:46.526Z,73.91
2023-05-24T11:12:18.013Z,73.49
2023-05-24T11:14:51.823Z,73.99
2023-05-24T11:17:23.104Z,74.97
2023-05-24T11:19:54.976Z,72.37
2023-05-24T11:22:26.913Z,73.28
2023-05-24T11:24:57.781Z,73.24
2023-05-24T11:27:26.810Z,73.79
2023-05-24T11:29:56.173Z,71.76
2023-05-24T11:32:25.230Z,71.95
2023-05-24T11:34:53.851Z,71.73
2023-05-24T11:37:34.865Z,71.77
2023-05-24T11:40:11.186Z,72.06
2023-05-24T11:42:40.325Z,72.17
2023-05-24T11:45:11.862Z,70.64
2023-05-24T11:47:41.255Z,72.38
2023-05-24T11:50:10.766Z,71.92
2023-05-24T11:52:41.705Z,70.45
2023-05-24T11:55:17.178Z,71.34
2023-05-24T11:57:54.687Z,73.70
2023-05-24T12:00:26.764Z,70.91
2023-05-24T12:03:02.615Z,72.43
2023-05-24T12:05:32.026Z,70.72
2023-05-24T12:08:06.121Z,72.76
2023-05-24T12:10:37.910Z,72.31
2023-05-24T12:13:07.730Z,71.80
2023-05-24T12:15:36.335Z,73.86
2023-05-24T12:18:05.039Z,71.89
2023-05-24T12:20:33.965Z,71.65
2023-05-24T12:23:02.897Z,71.46
2023-05-24T12:25:31.430Z,73.38
2023-05-24T12:28:01.352Z,72.72
2023-05-24T12:30:30.628Z,72.04
2023-05-24T12:33:00.006Z,71.86
2023-05-24T12:35:28.929Z,72.58
2023-05-24T12:38:01.426Z,71.95
2023-05-24T12:40:34.582Z,71.68
2023-05-24T12:43:06.024Z,71.84
2023-05-24T12:45:34.837Z,72.14
2023-05-24T12:48:05.226Z,72.23
2023-05-24T12:50:34.929Z,72.16
2023-05-24T12:53:03.693Z,71.79
2023-05-24T12:55:32.354Z,70.89
2023-05-24T12:58:02.728Z,69.15
2023-05-24T13:00:32.613Z,70.92
2023-05-24T13:03:01.206Z,69.32
2023-05-24T13:05:30.729Z,70.21
2023-05-24T13:07:59.713Z,71.34
2023-05-24T13:10:29.199Z,70.31
2023-05-24T13:12:57.753Z,70.26
2023-05-24T13:15:27.428Z,69.33
2023-05-24T13:17:57.418Z,69.46
2023-05-24T13:20:26.412Z,68.97
2023-05-24T13:22:55.004Z,65.84
2023-05-24T13:25:23.829Z,67.55
2023-05-24T13:27:52.641Z,70.42
2023-05-24T13:30:27.744Z,67.39
2023-05-24T13:32:59.010Z,67.41
2023-05-24T13:35:27.609Z,66.75
2023-05-24T13:37:58.084Z,65.25
2023-05-24T13:40:27.031Z,66.77
2023-05-24T13:42:58.587Z,64.32
2023-05-24T13:45:27.300Z,65.97
2023-05-24T13:48:03.935Z,63.57
2023-05-24T13:50:32.929Z,65.26
2023-05-24T13:53:02.197Z,62.51
2023-05-24T13:55:31.777Z,57.73
2023-05-24T13:58:01.689Z,59.87
2023-05-24T14:00:30.322Z,60.63
2023-05-24T14:03:00.370Z,58.38
2023-05-24T14:05:30.638Z,61.65
2023-05-24T14:08:00.462Z,59.79
2023-05-24T14:10:29.319Z,59.02
2023-05-24T14:13:16.188Z,55.83
2023-05-24T14:15:47.182Z,57.83
2023-05-24T14:18:17.284Z,60.38
2023-05-24T14:20:45.910Z,60.38
2023-05-24T14:23:14.771Z,62.38
2023-05-24T14:25:43.532Z,60.32
2023-05-24T14:28:13.746Z,58.60
2023-05-24T14:30:42.363Z,58.11
2023-05-24T14:33:12.154Z,59.15
2023-05-24T14:35:42.770Z,56.92
2023-05-24T14:38:12.620Z,57.58
2023-05-24T14:40:42.571Z,57.04
2023-05-24T14:43:11.359Z,54.88
2023-05-24T14:45:42.303Z,51.05
2023-05-24T14:48:12.649Z,55.46
2023-05-24T14:50:43.377Z,56.44
2023-05-24T14:53:13.082Z,53.20
2023-05-24T14:55:43.984Z,54.70
2023-05-24T14:58:14.146Z,53.69
2023-05-24T15:00:44.445Z,52.27
2023-05-24T15:03:14.944Z,55.93
2023-05-24T15:05:45.610Z,59.14
2023-05-24T15:08:14.274Z,50.69
2023-05-24T15:10:44.946Z,52.19
2023-05-24T15:13:14.186Z,54.90
2023-05-24T15:15:43.420Z,51.96
2023-05-24T15:18:12.062Z,53.83
2023-05-24T15:20:41.618Z,53.58
2023-05-24T15:23:11.838Z,57.07
2023-05-24T15:25:41.270Z,52.57
2023-05-24T15:28:10.788Z,50.65
2023-05-24T15:30:39.384Z,51.12
2023-05-24T15:33:08.017Z,53.60
2023-05-24T15:35:36.573Z,55.08
2023-05-24T15:38:05.366Z,57.08
2023-05-24T15:40:35.320Z,55.29
2023-05-24T15:43:03.891Z,58.07
2023-05-24T15:45:32.446Z,55.74
2023-05-24T15:48:02.620Z,53.31
2023-05-24T15:50:54.121Z,54.56
2023-05-24T15:53:21.582Z,54.66
2023-05-24T15:55:51.753Z,56.57
2023-05-24T15:58:20.504Z,56.08
2023-05-24T16:00:49.040Z,55.63
2023-05-24T16:03:17.964Z,56.83
2023-05-24T16:05:48.754Z,55.47
2023-05-24T16:08:18.381Z,56.70
2023-05-24T16:10:48.488Z,57.27
2023-05-24T16:13:18.411Z,58.60
2023-05-24T16:15:51.722Z,55.46
2023-05-24T16:18:22.519Z,56.36
2023-05-24T16:20:52.916Z,57.78
2023-05-24T16:23:23.918Z,58.29
2023-05-24T16:25:52.886Z,63.50
2023-05-24T16:28:24.792Z,57.55
2023-05-24T16:30:56.256Z,61.38
2023-05-24T16:33:25.662Z,60.96
2023-05-24T16:35:56.851Z,62.28
2023-05-24T16:38:26.752Z,60.88
2023-05-24T16:40:55.326Z,60.55
2023-05-24T16:43:25.989Z,60.58
2023-05-24T16:45:55.252Z,61.31
2023-05-24T16:48:28.535Z,61.86
2023-05-24T16:50:57.774Z,61.74
2023-05-24T16:53:27.487Z,60.60
2023-05-24T16:55:58.078Z,61.35
2023-05-24T16:58:29.762Z,61.69
2023-05-24T17:00:58.800Z,59.41
2023-05-24T17:03:29.573Z,61.27
2023-05-24T17:06:03.296Z,58.50
2023-05-24T17:08:35.132Z,57.80
2023-05-24T17:11:03.907Z,58.05
2023-05-24T17:13:34.653Z,60.47
2023-05-24T17:16:05.350Z,58.09
2023-05-24T17:18:33.887Z,59.24
2023-05-24T17:21:04.389Z,57.76
2023-05-24T17:23:34.881Z,60.41
2023-05-24T17:26:03.744Z,60.97
2023-05-24T17:28:36.510Z,61.84
2023-05-24T17:31:05.188Z,61.40
2023-05-24T17:33:33.704Z,61.71
2023-05-24T17:36:02.880Z,63.02
2023-05-24T17:38:33.341Z,62.83
2023-05-24T17:41:01.892Z,62.74
2023-05-24T17:43:32.714Z,63.66
2023-05-24T17:46:06.835Z,61.89
2023-05-24T17:48:37.638Z,63.25
2023-05-24T17:51:09.032Z,64.10
2023-05-24T17:53:41.001Z,63.85
2023-05-24T17:56:09.872Z,64.99
2023-05-24T17:58:38.423Z,62.53
2023-05-24T18:01:10.551Z,66.59
2023-05-24T18:03:40.925Z,64.28
2023-05-24T18:06:11.025Z,65.33
2023-05-24T18:08:43.465Z,64.37
2023-05-24T18:11:13.871Z,67.64
2023-05-24T18:13:45.149Z,62.64
2023-05-24T18:16:16.304Z,64.66
2023-05-24T18:18:44.823Z,63.23
2023-05-24T18:21:14.110Z,66.52
2023-05-24T18:23:43.900Z,66.49
2023-05-24T18:26:13.624Z,68.24
2023-05-24T18:28:42.679Z,67.67
2023-05-24T18:31:11.596Z,72.33
2023-05-24T18:33:41.914Z,69.84
2023-05-24T18:36:10.813Z,70.51
2023-05-24T18:38:40.246Z,73.28
2023-05-24T18:41:10.230Z,74.24
2023-05-24T18:43:39.040Z,75.32
2023-05-24T18:46:09.067Z,76.79
2023-05-24T18:48:37.617Z,77.11
2023-05-24T18:51:08.137Z,76.95
2023-05-24T18:53:36.980Z,77.55
2023-05-24T18:56:05.960Z,79.46
2023-05-24T18:58:34.506Z,79.70
2023-05-24T19:01:03.189Z,77.62
2023-05-24T19:03:31.741Z,77.84
2023-05-24T19:06:00.585Z,76.79
2023-05-24T19:08:30.783Z,79.19
2023-05-24T19:10:59.299Z,78.42
2023-05-24T19:13:27.882Z,79.22
2023-05-24T19:15:57.731Z,79.39
2023-05-24T19:18:26.274Z,81.65
2023-05-24T19:20:54.941Z,80.29
2023-05-24T19:23:23.517Z,81.18
2023-05-24T19:25:53.436Z,81.69
2023-05-24T19:28:21.937Z,82.81
2023-05-24T19:30:50.667Z,82.18
2023-05-24T19:33:19.243Z,82.45
2023-05-24T19:35:47.776Z,83.51
2023-05-24T19:38:17.853Z,83.12
2023-05-24T19:40:46.647Z,82.55
2023-05-24T19:43:16.590Z,82.69
2023-05-24T19:45:45.623Z,83.23
2023-05-24T19:48:14.492Z,83.69
2023-05-24T19:50:43.009Z,83.15
2023-05-24T19:53:11.546Z,83.83
2023-05-24T19:55:40.063Z,83.48
2023-05-24T19:58:08.596Z,83.08
2023-05-24T20:00:38.595Z,84.30
2023-05-24T20:03:07.343Z,84.08
2023-05-24T20:05:36.235Z,84.69
2023-05-24T20:08:05.169Z,85.46
2023-05-24T20:10:36.565Z,84.82
2023-05-24T20:13:05.261Z,84.57
2023-05-24T20:15:33.847Z,83.81
2023-05-24T20:18:03.782Z,84.27
2023-05-24T20:20:32.803Z,84.96
2023-05-24T20:23:01.452Z,85.35
2023-05-24T20:25:29.947Z,85.35
2023-05-24T20:27:58.463Z,85.54
2023-05-24T20:30:27.229Z,84.31
2023-05-24T20:32:56.022Z,85.56
2023-05-24T20:35:26.023Z,83.49
2023-05-24T20:37:54.770Z,86.22
2023-05-24T20:40:25.134Z,82.84
2023-05-24T20:42:53.855Z,85.26
2023-05-24T20:45:22.515Z,85.67
2023-05-24T20:47:51.212Z,84.68
2023-05-24T20:50:19.982Z,84.82
2023-05-24T20:52:49.885Z,83.01
2023-05-24T20:55:18.979Z,85.26
2023-05-24T20:57:47.943Z,84.93
2023-05-24T21:00:17.475Z,86.24
2023-05-24T21:02:46.183Z,86.11
2023-05-24T21:05:14.794Z,85.53
2023-05-24T21:07:43.359Z,86.34
2023-05-24T21:10:18.522Z,86.74
2023-05-24T21:12:48.189Z,86.28
2023-05-24T21:15:17.146Z,86.13
2023-05-24T21:17:45.916Z,88.09
2023-05-24T21:20:14.524Z,85.62
2023-05-24T21:22:43.634Z,87.87
2023-05-24T21:25:13.551Z,86.52
2023-05-24T21:27:42.043Z,87.17
2023-05-24T21:30:12.141Z,87.32
2023-05-24T21:32:40.723Z,87.46
2023-05-24T21:35:10.127Z,85.99
2023-05-24T21:37:38.676Z,85.12
2023-05-24T21:40:08.638Z,87.07
2023-05-24T21:42:38.533Z,84.76
2023-05-24T21:45:08.878Z,87.04
2023-05-24T21:47:37.475Z,87.77
2023-05-24T21:50:06.956Z,86.39
2023-05-24T21:52:35.476Z,84.68
2023-05-24T21:55:04.120Z,87.12
2023-05-24T21:57:32.899Z,85.41
2023-05-24T22:00:04.205Z,84.98
2023-05-24T22:02:33.026Z,88.70
2023-05-24T22:05:01.555Z,86.37
2023-05-24T22:07:30.154Z,85.54
2023-05-24T22:09:58.762Z,86.86
2023-05-24T22:12:27.488Z,86.12
2023-05-24T22:14:56.028Z,87.12
2023-05-24T22:17:26.765Z,87.10
2023-05-24T22:19:55.533Z,88.74
2023-05-24T22:22:24.243Z,87.48
2023-05-24T22:24:52.818Z,86.47
2023-05-24T22:27:21.335Z,87.64
2023-05-24T22:29:50.163Z,86.55
2023-05-24T22:32:18.883Z,87.50
2023-05-24T22:34:48.828Z,87.24
2023-05-24T22:37:17.677Z,88.34
2023-05-24T22:39:46.339Z,88.64
2023-05-24T22:42:14.863Z,87.20
2023-05-24T22:44:43.421Z,87.30
2023-05-24T22:47:14.036Z,87.17
2023-05-24T22:49:43.145Z,87.40
2023-05-24T22:52:13.023Z,87.42
2023-05-24T22:54:42.646Z,86.37
2023-05-24T22:57:11.236Z,86.77
2023-05-24T22:59:39.980Z,85.78
2023-05-24T23:02:08.510Z,85.65
2023-05-24T23:04:38.142Z,86.22
2023-05-24T23:07:07.131Z,86.50
2023-05-24T23:09:37.295Z,85.88
2023-05-24T23:12:08.491Z,86.18
2023-05-24T23:14:39.208Z,86.21
2023-05-24T23:17:10.374Z,84.63
2023-05-24T23:19:42.673Z,85.41
2023-05-24T23:22:12.217Z,85.62
2023-05-24T23:24:43.873Z,86.02
2023-05-24T23:27:12.437Z,85.11
2023-05-24T23:29:41.156Z,85.31
2023-05-24T23:32:10.370Z,85.68
2023-05-24T23:34:38.951Z,84.29
2023-05-24T23:37:07.510Z,84.90
2023-05-24T23:39:36.262Z,84.38
2023-05-24T23:42:07.030Z,86.25
2023-05-24T23:44:36.334Z,84.37
2023-05-24T23:47:05.157Z,85.24
2023-05-24T23:49:33.780Z,84.59
2023-05-24T23:52:02.327Z,84.31
2023-05-24T23:54:30.895Z,84.83
2023-05-24T23:56:59.650Z,85.68
2023-05-24T23:59:29.559Z,84.70
